sensor_id;sensor_type;location;lat;lon;timestamp;pressure;altitude;pressure_sealevel;temperature;humidity
11172;BME280;5642;50.830;12.082;2023-04-30T00:00:48;99856.94;;;13.17;47.64
11172;BME280;5642;50.830;12.082;2023-04-30T00:03:14;99851.22;;;13.04;47.77
11172;BME280;5642;50.830;12.082;2023-04-30T00:05:40;99861.19;;;12.94;48.02
11172;BME280;5642;50.830;12.082;2023-04-30T00:08:06;99858.16;;;12.80;47.79
11172;BME280;5642;50.830;12.082;2023-04-30T00:10:32;99865.63;;;12.66;48.20
11172;BME280;5642;50.830;12.082;2023-04-30T00:13:09;99879.13;;;12.55;47.91
11172;BME280;5642;50.830;12.082;2023-04-30T00:15:35;99877.03;;;12.39;48.13
11172;BME280;5642;50.830;12.082;2023-04-30T00:18:02;99867.97;;;12.21;48.12
11172;BME280;5642;50.830;12.082;2023-04-30T00:20:30;99871.78;;;12.11;48.30
11172;BME280;5642;50.830;12.082;2023-04-30T00:22:57;99881.59;;;12.04;48.32
11172;BME280;5642;50.830;12.082;2023-04-30T00:25:23;99884.53;;;11.94;48.50
11172;BME280;5642;50.830;12.082;2023-04-30T00:27:50;99886.59;;;11.84;48.43
11172;BME280;5642;50.830;12.082;2023-04-30T00:30:16;99888.59;;;11.74;48.36
11172;BME280;5642;50.830;12.082;2023-04-30T00:32:43;99882.84;;;11.60;48.74
11172;BME280;5642;50.830;12.082;2023-04-30T00:35:11;99885.78;;;11.50;48.36
11172;BME280;5642;50.830;12.082;2023-04-30T00:37:37;99883.34;;;11.44;48.74
11172;BME280;5642;50.830;12.082;2023-04-30T00:40:03;99886.25;;;11.33;48.46
11172;BME280;5642;50.830;12.082;2023-04-30T00:42:33;99894.19;;;11.30;48.82
11172;BME280;5642;50.830;12.082;2023-04-30T00:44:59;99892.75;;;11.18;48.49
11172;BME280;5642;50.830;12.082;2023-04-30T00:47:26;99904.16;;;11.16;48.64
11172;BME280;5642;50.830;12.082;2023-04-30T00:50:02;99903.44;;;11.11;48.38
11172;BME280;5642;50.830;12.082;2023-04-30T00:52:28;99902.00;;;10.99;48.77
11172;BME280;5642;50.830;12.082;2023-04-30T00:54:54;99917.69;;;11.01;48.45
11172;BME280;5642;50.830;12.082;2023-04-30T00:57:21;99919.56;;;10.95;48.42
11172;BME280;5642;50.830;12.082;2023-04-30T00:59:48;99924.06;;;10.90;48.58
11172;BME280;5642;50.830;12.082;2023-04-30T01:02:16;99925.03;;;10.86;48.44
11172;BME280;5642;50.830;12.082;2023-04-30T01:04:42;99923.53;;;10.76;48.49
11172;BME280;5642;50.830;12.082;2023-04-30T01:07:08;99940.09;;;10.78;48.50
11172;BME280;5642;50.830;12.082;2023-04-30T01:09:34;99940.25;;;10.72;48.46
11172;BME280;5642;50.830;12.082;2023-04-30T01:15:34;99950.94;;;10.62;48.56
11172;BME280;5642;50.830;12.082;2023-04-30T01:18:34;99959.94;;;10.51;48.61
11172;BME280;5642;50.830;12.082;2023-04-30T01:21:04;99960.97;;;10.44;48.77
11172;BME280;5642;50.830;12.082;2023-04-30T01:26:12;99970.53;;;10.45;48.48
11172;BME280;5642;50.830;12.082;2023-04-30T01:28:44;99969.78;;;10.39;48.57
11172;BME280;5642;50.830;12.082;2023-04-30T01:31:18;99973.38;;;10.35;48.77
11172;BME280;5642;50.830;12.082;2023-04-30T01:33:44;99974.41;;;10.28;48.87
11172;BME280;5642;50.830;12.082;2023-04-30T01:39:45;99983.34;;;10.16;48.89
11172;BME280;5642;50.830;12.082;2023-04-30T01:42:22;99982.56;;;10.11;48.91
11172;BME280;5642;50.830;12.082;2023-04-30T01:47:47;99979.97;;;10.11;48.88
11172;BME280;5642;50.830;12.082;2023-04-30T01:53:06;99989.53;;;10.12;48.75
11172;BME280;5642;50.830;12.082;2023-04-30T01:55:56;99991.19;;;10.16;48.63
11172;BME280;5642;50.830;12.082;2023-04-30T01:58:24;99994.72;;;10.15;48.54
11172;BME280;5642;50.830;12.082;2023-04-30T02:00:51;99998.13;;;10.20;48.52
11172;BME280;5642;50.830;12.082;2023-04-30T02:03:18;99995.53;;;10.20;48.56
11172;BME280;5642;50.830;12.082;2023-04-30T02:05:44;99998.91;;;10.25;48.44
11172;BME280;5642;50.830;12.082;2023-04-30T02:08:10;100002.38;;;10.26;48.45
11172;BME280;5642;50.830;12.082;2023-04-30T02:10:36;99992.91;;;10.20;48.64
11172;BME280;5642;50.830;12.082;2023-04-30T02:13:02;100000.72;;;10.22;48.44
11172;BME280;5642;50.830;12.082;2023-04-30T02:15:28;100010.19;;;10.29;48.57
11172;BME280;5642;50.830;12.082;2023-04-30T02:17:54;100018.91;;;10.29;48.36
11172;BME280;5642;50.830;12.082;2023-04-30T02:20:20;100018.03;;;10.29;48.50
11172;BME280;5642;50.830;12.082;2023-04-30T02:22:46;100017.16;;;10.30;48.48
11172;BME280;5642;50.830;12.082;2023-04-30T02:25:12;100022.41;;;10.28;48.56
11172;BME280;5642;50.830;12.082;2023-04-30T02:27:39;100028.56;;;10.26;48.47
11172;BME280;5642;50.830;12.082;2023-04-30T02:30:05;100027.72;;;10.24;48.51
11172;BME280;5642;50.830;12.082;2023-04-30T02:32:32;100034.78;;;10.22;48.51
11172;BME280;5642;50.830;12.082;2023-04-30T02:34:58;100021.81;;;10.12;48.83
11172;BME280;5642;50.830;12.082;2023-04-30T02:37:24;100032.47;;;10.02;48.86
11172;BME280;5642;50.830;12.082;2023-04-30T02:39:52;100038.69;;;9.98;48.70
11172;BME280;5642;50.830;12.082;2023-04-30T02:42:18;100044.13;;;9.87;48.99
11172;BME280;5642;50.830;12.082;2023-04-30T02:44:44;100046.88;;;9.79;49.16
11172;BME280;5642;50.830;12.082;2023-04-30T02:47:10;100045.16;;;9.78;49.05
11172;BME280;5642;50.830;12.082;2023-04-30T02:49:36;100040.91;;;9.73;49.25
11172;BME280;5642;50.830;12.082;2023-04-30T02:52:02;100047.09;;;9.67;48.93
11172;BME280;5642;50.830;12.082;2023-04-30T02:54:29;100046.41;;;9.58;49.33
11172;BME280;5642;50.830;12.082;2023-04-30T02:56:55;100042.13;;;9.52;49.35
11172;BME280;5642;50.830;12.082;2023-04-30T02:59:21;100041.44;;;9.41;49.35
11172;BME280;5642;50.830;12.082;2023-04-30T03:01:47;100046.78;;;9.35;49.34
11172;BME280;5642;50.830;12.082;2023-04-30T03:04:13;100058.16;;;9.31;49.48
11172;BME280;5642;50.830;12.082;2023-04-30T03:06:39;100039.19;;;9.18;49.54
11172;BME280;5642;50.830;12.082;2023-04-30T03:09:21;100056.63;;;9.19;49.51
11172;BME280;5642;50.830;12.082;2023-04-30T03:11:47;100061.09;;;9.11;49.45
11172;BME280;5642;50.830;12.082;2023-04-30T03:14:13;100057.66;;;9.09;49.35
11172;BME280;5642;50.830;12.082;2023-04-30T03:16:39;100055.09;;;9.06;49.15
11172;BME280;5642;50.830;12.082;2023-04-30T03:19:06;100070.69;;;9.11;49.55
11172;BME280;5642;50.830;12.082;2023-04-30T03:21:32;100062.03;;;9.09;49.79
11172;BME280;5642;50.830;12.082;2023-04-30T03:24:20;100073.34;;;9.09;49.39
11172;BME280;5642;50.830;12.082;2023-04-30T03:26:46;100073.41;;;9.03;49.85
11172;BME280;5642;50.830;12.082;2023-04-30T03:29:12;100074.31;;;9.02;49.17
11172;BME280;5642;50.830;12.082;2023-04-30T03:31:38;100070.00;;;8.98;49.35
11172;BME280;5642;50.830;12.082;2023-04-30T03:34:05;100070.97;;;8.91;49.62
11172;BME280;5642;50.830;12.082;2023-04-30T03:36:31;100071.00;;;8.89;49.83
11172;BME280;5642;50.830;12.082;2023-04-30T03:38:58;100071.09;;;8.83;49.25
11172;BME280;5642;50.830;12.082;2023-04-30T03:41:24;100067.63;;;8.81;49.26
11172;BME280;5642;50.830;12.082;2023-04-30T03:43:50;100065.97;;;8.76;49.63
11172;BME280;5642;50.830;12.082;2023-04-30T03:46:16;100072.91;;;8.80;49.51
11172;BME280;5642;50.830;12.082;2023-04-30T03:48:42;100060.03;;;8.66;49.78
11172;BME280;5642;50.830;12.082;2023-04-30T03:51:09;100085.13;;;8.75;49.38
11172;BME280;5642;50.830;12.082;2023-04-30T03:53:36;100086.94;;;8.73;49.70
11172;BME280;5642;50.830;12.082;2023-04-30T03:56:02;100085.22;;;8.70;49.38
11172;BME280;5642;50.830;12.082;2023-04-30T03:58:29;100070.53;;;8.60;49.74
11172;BME280;5642;50.830;12.082;2023-04-30T04:01:17;100093.06;;;8.67;49.54
11172;BME280;5642;50.830;12.082;2023-04-30T04:03:43;100100.94;;;8.66;49.38
11172;BME280;5642;50.830;12.082;2023-04-30T04:06:09;100086.94;;;8.71;49.24
11172;BME280;5642;50.830;12.082;2023-04-30T04:08:35;100090.25;;;8.82;49.04
11172;BME280;5642;50.830;12.082;2023-04-30T04:11:01;100105.63;;;9.03;48.96
11172;BME280;5642;50.830;12.082;2023-04-30T04:13:27;100111.50;;;9.21;48.96
11172;BME280;5642;50.830;12.082;2023-04-30T04:15:53;100084.41;;;9.25;48.61
11172;BME280;5642;50.830;12.082;2023-04-30T04:18:19;100114.41;;;9.58;48.22
11172;BME280;5642;50.830;12.082;2023-04-30T04:20:45;100113.22;;;9.75;48.41
11172;BME280;5642;50.830;12.082;2023-04-30T04:23:21;100120.72;;;9.95;47.99
11172;BME280;5642;50.830;12.082;2023-04-30T04:25:47;100120.53;;;10.06;47.88
11172;BME280;5642;50.830;12.082;2023-04-30T04:28:17;100125.56;;;10.16;47.93
11172;BME280;5642;50.830;12.082;2023-04-30T04:30:43;100129.69;;;10.31;47.69
11172;BME280;5642;50.830;12.082;2023-04-30T04:33:09;100121.78;;;10.34;47.78
11172;BME280;5642;50.830;12.082;2023-04-30T04:35:36;100134.56;;;10.51;47.54
11172;BME280;5642;50.830;12.082;2023-04-30T04:38:03;100141.31;;;10.63;47.68
11172;BME280;5642;50.830;12.082;2023-04-30T04:40:29;100138.44;;;10.75;47.66
11172;BME280;5642;50.830;12.082;2023-04-30T04:42:58;100135.53;;;10.88;47.76
11172;BME280;5642;50.830;12.082;2023-04-30T04:45:24;100133.28;;;11.49;46.78
11172;BME280;5642;50.830;12.082;2023-04-30T04:47:50;100145.44;;;12.56;45.45
11172;BME280;5642;50.830;12.082;2023-04-30T04:50:16;100127.44;;;13.58;43.87
11172;BME280;5642;50.830;12.082;2023-04-30T04:52:43;100132.88;;;14.56;42.87
11172;BME280;5642;50.830;12.082;2023-04-30T04:55:09;100135.13;;;15.35;41.96
11172;BME280;5642;50.830;12.082;2023-04-30T04:57:36;100140.06;;;15.88;41.69
11172;BME280;5642;50.830;12.082;2023-04-30T05:00:09;100138.53;;;15.82;41.91
11172;BME280;5642;50.830;12.082;2023-04-30T05:02:37;100146.41;;;15.62;42.40
11172;BME280;5642;50.830;12.082;2023-04-30T05:05:03;100140.41;;;15.35;43.08
11172;BME280;5642;50.830;12.082;2023-04-30T05:07:30;100135.09;;;15.13;43.51
11172;BME280;5642;50.830;12.082;2023-04-30T05:09:56;100133.59;;;14.84;44.20
11172;BME280;5642;50.830;12.082;2023-04-30T05:12:22;100147.97;;;14.76;44.60
11172;BME280;5642;50.830;12.082;2023-04-30T05:15:10;100150.22;;;14.63;44.91
11172;BME280;5642;50.830;12.082;2023-04-30T05:17:36;100141.06;;;14.48;45.12
11172;BME280;5642;50.830;12.082;2023-04-30T05:20:02;100149.94;;;14.46;45.40
11172;BME280;5642;50.830;12.082;2023-04-30T05:22:29;100129.19;;;14.35;45.50
11172;BME280;5642;50.830;12.082;2023-04-30T05:24:56;100147.63;;;14.35;45.58
11172;BME280;5642;50.830;12.082;2023-04-30T05:27:21;100147.53;;;14.40;45.68
11172;BME280;5642;50.830;12.082;2023-04-30T05:29:47;100158.97;;;14.37;45.72
11172;BME280;5642;50.830;12.082;2023-04-30T05:32:13;100145.56;;;14.20;45.74
11172;BME280;5642;50.830;12.082;2023-04-30T05:34:39;100152.91;;;14.10;46.14
11172;BME280;5642;50.830;12.082;2023-04-30T05:37:14;100148.75;;;14.03;45.90
11172;BME280;5642;50.830;12.082;2023-04-30T05:39:42;100155.09;;;13.98;46.12
11172;BME280;5642;50.830;12.082;2023-04-30T05:42:08;100158.63;;;13.97;46.14
11172;BME280;5642;50.830;12.082;2023-04-30T05:44:45;100155.97;;;13.98;46.07
11172;BME280;5642;50.830;12.082;2023-04-30T05:47:11;100165.72;;;13.95;46.37
11172;BME280;5642;50.830;12.082;2023-04-30T05:49:37;100165.72;;;13.95;46.20
11172;BME280;5642;50.830;12.082;2023-04-30T05:52:04;100156.66;;;14.03;46.15
11172;BME280;5642;50.830;12.082;2023-04-30T05:54:31;100161.03;;;14.04;46.13
11172;BME280;5642;50.830;12.082;2023-04-30T05:56:57;100154.03;;;14.03;46.23
11172;BME280;5642;50.830;12.082;2023-04-30T05:59:23;100152.22;;;14.05;46.27
11172;BME280;5642;50.830;12.082;2023-04-30T06:01:49;100154.88;;;14.04;46.21
11172;BME280;5642;50.830;12.082;2023-04-30T06:04:15;100152.22;;;14.05;46.29
11172;BME280;5642;50.830;12.082;2023-04-30T06:06:42;100153.19;;;14.01;46.11
11172;BME280;5642;50.830;12.082;2023-04-30T06:09:08;100146.34;;;13.97;46.31
11172;BME280;5642;50.830;12.082;2023-04-30T06:11:35;100156.66;;;14.03;46.14
11172;BME280;5642;50.830;12.082;2023-04-30T06:14:05;100128.19;;;13.88;46.24
11172;BME280;5642;50.830;12.082;2023-04-30T06:16:31;100154.94;;;14.02;46.29
11172;BME280;5642;50.830;12.082;2023-04-30T06:18:57;100159.09;;;14.09;46.01
11172;BME280;5642;50.830;12.082;2023-04-30T06:21:22;100161.50;;;14.16;46.05
11172;BME280;5642;50.830;12.082;2023-04-30T06:23:51;100152.44;;;14.24;46.07
11172;BME280;5642;50.830;12.082;2023-04-30T06:26:18;100148.75;;;14.28;45.92
11172;BME280;5642;50.830;12.082;2023-04-30T06:28:44;100154.63;;;14.36;46.04
11172;BME280;5642;50.830;12.082;2023-04-30T06:31:12;100154.16;;;14.50;45.83
11172;BME280;5642;50.830;12.082;2023-04-30T06:33:37;100156.44;;;14.61;45.85
11172;BME280;5642;50.830;12.082;2023-04-30T06:36:04;100156.97;;;14.70;45.71
11172;BME280;5642;50.830;12.082;2023-04-30T06:38:30;100151.53;;;14.75;45.54
11172;BME280;5642;50.830;12.082;2023-04-30T06:40:56;100159.25;;;14.79;45.50
11172;BME280;5642;50.830;12.082;2023-04-30T06:43:22;100158.09;;;14.86;45.42
11172;BME280;5642;50.830;12.082;2023-04-30T06:45:48;100162.41;;;14.89;45.58
11172;BME280;5642;50.830;12.082;2023-04-30T06:48:15;100162.38;;;14.91;45.35
11172;BME280;5642;50.830;12.082;2023-04-30T06:50:40;100154.38;;;14.92;45.36
11172;BME280;5642;50.830;12.082;2023-04-30T06:53:13;100162.19;;;14.95;45.33
11172;BME280;5642;50.830;12.082;2023-04-30T06:55:44;100166.38;;;15.01;45.16
11172;BME280;5642;50.830;12.082;2023-04-30T06:58:11;100155.53;;;15.08;45.36
11172;BME280;5642;50.830;12.082;2023-04-30T07:00:37;100156.44;;;15.31;45.16
11172;BME280;5642;50.830;12.082;2023-04-30T07:03:04;100155.56;;;15.53;44.93
11172;BME280;5642;50.830;12.082;2023-04-30T07:05:30;100158.22;;;15.95;44.53
11172;BME280;5642;50.830;12.082;2023-04-30T07:07:59;100159.00;;;16.39;44.34
11172;BME280;5642;50.830;12.082;2023-04-30T07:10:26;100155.47;;;16.79;43.96
11172;BME280;5642;50.830;12.082;2023-04-30T07:13:04;100147.97;;;17.08;43.67
11172;BME280;5642;50.830;12.082;2023-04-30T07:15:32;100149.91;;;17.23;43.82
11172;BME280;5642;50.830;12.082;2023-04-30T07:17:58;100160.59;;;17.40;43.85
11172;BME280;5642;50.830;12.082;2023-04-30T07:20:24;100155.13;;;17.43;43.75
11172;BME280;5642;50.830;12.082;2023-04-30T07:22:50;100150.69;;;17.44;43.95
11172;BME280;5642;50.830;12.082;2023-04-30T07:25:16;100157.41;;;17.51;43.91
11172;BME280;5642;50.830;12.082;2023-04-30T07:27:44;100158.72;;;17.61;43.82
11172;BME280;5642;50.830;12.082;2023-04-30T07:30:10;100146.66;;;17.73;43.88
11172;BME280;5642;50.830;12.082;2023-04-30T07:32:37;100150.72;;;17.80;43.77
11172;BME280;5642;50.830;12.082;2023-04-30T07:35:15;100148.22;;;17.77;43.88
11172;BME280;5642;50.830;12.082;2023-04-30T07:37:41;100141.91;;;17.79;43.97
11172;BME280;5642;50.830;12.082;2023-04-30T07:40:09;100144.06;;;17.90;43.84
11172;BME280;5642;50.830;12.082;2023-04-30T07:42:56;100145.56;;;17.77;43.62
11172;BME280;5642;50.830;12.082;2023-04-30T07:45:22;100134.88;;;17.61;43.78
11172;BME280;5642;50.830;12.082;2023-04-30T07:47:48;100145.09;;;17.69;43.75
11172;BME280;5642;50.830;12.082;2023-04-30T07:50:33;100148.94;;;17.80;43.29
11172;BME280;5642;50.830;12.082;2023-04-30T07:53:00;100159.47;;;17.82;43.34
11172;BME280;5642;50.830;12.082;2023-04-30T07:55:26;100149.50;;;17.87;43.10
11172;BME280;5642;50.830;12.082;2023-04-30T08:01:14;100163.47;;;18.25;42.80
11172;BME280;5642;50.830;12.082;2023-04-30T08:03:41;100148.53;;;19.23;42.14
11172;BME280;5642;50.830;12.082;2023-04-30T08:06:34;100159.28;;;19.98;41.58
11172;BME280;5642;50.830;12.082;2023-04-30T08:09:00;100158.28;;;20.30;41.55
11172;BME280;5642;50.830;12.082;2023-04-30T08:11:26;100161.09;;;20.43;41.46
11172;BME280;5642;50.830;12.082;2023-04-30T08:13:52;100165.25;;;20.47;41.65
11172;BME280;5642;50.830;12.082;2023-04-30T08:16:18;100167.84;;;20.49;41.36
11172;BME280;5642;50.830;12.082;2023-04-30T08:18:44;100163.53;;;20.46;41.48
11172;BME280;5642;50.830;12.082;2023-04-30T08:21:12;100149.44;;;20.88;41.45
11172;BME280;5642;50.830;12.082;2023-04-30T08:23:38;100162.63;;;21.73;40.88
11172;BME280;5642;50.830;12.082;2023-04-30T08:26:04;100162.19;;;22.46;40.53
11172;BME280;5642;50.830;12.082;2023-04-30T08:28:34;100166.72;;;22.71;40.45
11172;BME280;5642;50.830;12.082;2023-04-30T08:31:00;100166.72;;;22.96;40.17
11172;BME280;5642;50.830;12.082;2023-04-30T08:33:26;100153.78;;;23.64;40.06
11172;BME280;5642;50.830;12.082;2023-04-30T08:35:53;100159.38;;;24.66;39.61
11172;BME280;5642;50.830;12.082;2023-04-30T08:38:19;100155.44;;;25.93;38.79
11172;BME280;5642;50.830;12.082;2023-04-30T08:40:53;100150.16;;;27.16;38.37
11172;BME280;5642;50.830;12.082;2023-04-30T08:43:21;100152.91;;;28.62;38.42
11172;BME280;5642;50.830;12.082;2023-04-30T08:45:49;100144.31;;;30.13;37.46
11172;BME280;5642;50.830;12.082;2023-04-30T08:48:18;100142.28;;;31.36;36.73
11172;BME280;5642;50.830;12.082;2023-04-30T08:50:46;100141.28;;;32.44;36.63
11172;BME280;5642;50.830;12.082;2023-04-30T08:53:12;100144.03;;;33.54;36.06
11172;BME280;5642;50.830;12.082;2023-04-30T08:55:40;100137.00;;;34.59;35.51
11172;BME280;5642;50.830;12.082;2023-04-30T08:58:09;100128.88;;;35.32;34.89
11172;BME280;5642;50.830;12.082;2023-04-30T09:00:37;100133.47;;;35.83;34.22
11172;BME280;5642;50.830;12.082;2023-04-30T09:03:06;100132.50;;;36.11;34.37
11172;BME280;5642;50.830;12.082;2023-04-30T09:05:33;100133.31;;;36.27;34.08
11172;BME280;5642;50.830;12.082;2023-04-30T09:07:59;100132.59;;;36.67;34.34
11172;BME280;5642;50.830;12.082;2023-04-30T09:10:26;100133.50;;;37.09;33.89
11172;BME280;5642;50.830;12.082;2023-04-30T09:13:03;100125.00;;;37.38;33.47
11172;BME280;5642;50.830;12.082;2023-04-30T09:15:31;100129.97;;;37.62;33.44
11172;BME280;5642;50.830;12.082;2023-04-30T09:18:11;100122.84;;;37.81;33.07
11172;BME280;5642;50.830;12.082;2023-04-30T09:20:53;100127.56;;;38.14;33.32
11172;BME280;5642;50.830;12.082;2023-04-30T09:23:19;100124.00;;;38.26;33.11
11172;BME280;5642;50.830;12.082;2023-04-30T09:25:45;100132.00;;;38.54;33.08
11172;BME280;5642;50.830;12.082;2023-04-30T09:28:13;100140.03;;;38.56;32.58
11172;BME280;5642;50.830;12.082;2023-04-30T09:30:40;100140.41;;;38.46;32.55
11172;BME280;5642;50.830;12.082;2023-04-30T09:33:07;100127.97;;;38.37;32.61
11172;BME280;5642;50.830;12.082;2023-04-30T09:35:35;100130.31;;;38.27;32.92
11172;BME280;5642;50.830;12.082;2023-04-30T09:38:04;100121.47;;;38.25;32.97
11172;BME280;5642;50.830;12.082;2023-04-30T09:40:38;100111.56;;;38.24;32.41
11172;BME280;5642;50.830;12.082;2023-04-30T09:43:07;100117.25;;;38.42;32.44
11172;BME280;5642;50.830;12.082;2023-04-30T09:45:39;100116.00;;;38.71;32.01
11172;BME280;5642;50.830;12.082;2023-04-30T09:48:14;100107.66;;;39.17;31.57
11172;BME280;5642;50.830;12.082;2023-04-30T09:50:47;100093.88;;;39.43;31.84
11172;BME280;5642;50.830;12.082;2023-04-30T09:53:14;100108.00;;;39.85;31.36
11172;BME280;5642;50.830;12.082;2023-04-30T09:55:45;100108.41;;;40.13;31.18
11172;BME280;5642;50.830;12.082;2023-04-30T09:58:12;100094.13;;;40.29;30.68
11172;BME280;5642;50.830;12.082;2023-04-30T10:00:39;100099.06;;;40.46;30.90
11172;BME280;5642;50.830;12.082;2023-04-30T10:03:12;100102.81;;;40.51;30.65
11172;BME280;5642;50.830;12.082;2023-04-30T10:05:41;100095.53;;;40.14;30.67
11172;BME280;5642;50.830;12.082;2023-04-30T10:08:31;100087.91;;;38.95;30.99
11172;BME280;5642;50.830;12.082;2023-04-30T10:11:02;100092.41;;;38.17;31.45
11172;BME280;5642;50.830;12.082;2023-04-30T10:13:31;100088.16;;;37.95;31.59
11172;BME280;5642;50.830;12.082;2023-04-30T10:16:02;100084.19;;;37.91;31.83
11172;BME280;5642;50.830;12.082;2023-04-30T10:18:38;100094.56;;;37.41;31.35
11172;BME280;5642;50.830;12.082;2023-04-30T10:21:41;100085.22;;;36.54;31.85
11172;BME280;5642;50.830;12.082;2023-04-30T10:24:13;100086.63;;;36.43;31.97
11172;BME280;5642;50.830;12.082;2023-04-30T10:26:40;100079.53;;;36.76;31.81
11172;BME280;5642;50.830;12.082;2023-04-30T10:29:18;100063.53;;;37.08;30.73
11172;BME280;5642;50.830;12.082;2023-04-30T10:31:47;100064.09;;;37.44;31.10
11172;BME280;5642;50.830;12.082;2023-04-30T10:34:24;100071.72;;;37.69;30.60
11172;BME280;5642;50.830;12.082;2023-04-30T10:37:26;100062.84;;;37.53;30.46
11172;BME280;5642;50.830;12.082;2023-04-30T10:39:54;100048.06;;;37.21;31.00
11172;BME280;5642;50.830;12.082;2023-04-30T10:42:21;100064.81;;;37.12;30.71
11172;BME280;5642;50.830;12.082;2023-04-30T10:44:48;100063.25;;;36.62;31.19
11172;BME280;5642;50.830;12.082;2023-04-30T10:47:15;100064.25;;;36.05;31.42
11172;BME280;5642;50.830;12.082;2023-04-30T10:49:48;100061.94;;;35.59;31.40
11172;BME280;5642;50.830;12.082;2023-04-30T10:52:25;100055.41;;;35.60;31.24
11172;BME280;5642;50.830;12.082;2023-04-30T10:54:53;100057.59;;;35.86;31.44
11172;BME280;5642;50.830;12.082;2023-04-30T10:57:21;100045.34;;;35.76;31.02
11172;BME280;5642;50.830;12.082;2023-04-30T11:03:03;100054.25;;;34.68;31.13
11172;BME280;5642;50.830;12.082;2023-04-30T11:05:34;100053.09;;;33.96;31.35
11172;BME280;5642;50.830;12.082;2023-04-30T11:08:01;100045.81;;;33.42;31.68
11172;BME280;5642;50.830;12.082;2023-04-30T11:10:31;100049.84;;;33.24;31.45
11172;BME280;5642;50.830;12.082;2023-04-30T11:13:02;100036.25;;;32.85;31.50
11172;BME280;5642;50.830;12.082;2023-04-30T11:15:38;100036.94;;;32.32;31.29
11172;BME280;5642;50.830;12.082;2023-04-30T11:21:30;100033.50;;;31.48;31.99
11172;BME280;5642;50.830;12.082;2023-04-30T11:24:02;100030.97;;;31.47;31.47
11172;BME280;5642;50.830;12.082;2023-04-30T11:27:08;100034.88;;;31.52;30.98
11172;BME280;5642;50.830;12.082;2023-04-30T11:29:38;100034.59;;;31.13;30.64
11172;BME280;5642;50.830;12.082;2023-04-30T11:32:05;100029.72;;;30.75;30.03
11172;BME280;5642;50.830;12.082;2023-04-30T11:34:33;100024.72;;;30.62;30.05
11172;BME280;5642;50.830;12.082;2023-04-30T11:37:00;100026.59;;;30.36;29.66
11172;BME280;5642;50.830;12.082;2023-04-30T11:39:28;100023.78;;;29.94;28.99
11172;BME280;5642;50.830;12.082;2023-04-30T11:41:55;100026.34;;;29.15;28.53
11172;BME280;5642;50.830;12.082;2023-04-30T11:44:25;100039.41;;;27.99;28.99
11172;BME280;5642;50.830;12.082;2023-04-30T11:46:51;100018.06;;;26.60;28.96
11172;BME280;5642;50.830;12.082;2023-04-30T11:49:19;100036.88;;;25.45;29.17
11172;BME280;5642;50.830;12.082;2023-04-30T11:51:49;100042.34;;;24.44;29.58
11172;BME280;5642;50.830;12.082;2023-04-30T11:54:21;100012.91;;;23.52;29.68
11172;BME280;5642;50.830;12.082;2023-04-30T11:56:48;100042.41;;;23.03;29.43
11172;BME280;5642;50.830;12.082;2023-04-30T11:59:15;100032.44;;;22.56;29.67
11172;BME280;5642;50.830;12.082;2023-04-30T12:01:42;100031.19;;;21.98;29.79
11172;BME280;5642;50.830;12.082;2023-04-30T12:04:09;100006.16;;;21.34;30.04
11172;BME280;5642;50.830;12.082;2023-04-30T12:06:36;100030.06;;;20.95;29.93
11172;BME280;5642;50.830;12.082;2023-04-30T12:09:03;100004.25;;;20.54;30.06
11172;BME280;5642;50.830;12.082;2023-04-30T12:12:04;100024.59;;;20.41;29.91
11172;BME280;5642;50.830;12.082;2023-04-30T12:14:31;100017.03;;;20.05;30.10
11172;BME280;5642;50.830;12.082;2023-04-30T12:16:59;100005.63;;;19.75;29.95
11172;BME280;5642;50.830;12.082;2023-04-30T12:19:37;100024.09;;;19.76;29.76
11172;BME280;5642;50.830;12.082;2023-04-30T12:22:03;100042.09;;;19.57;30.01
11172;BME280;5642;50.830;12.082;2023-04-30T12:24:31;100018.63;;;19.34;29.89
11172;BME280;5642;50.830;12.082;2023-04-30T12:27:16;100030.38;;;19.14;29.93
11172;BME280;5642;50.830;12.082;2023-04-30T12:29:43;100016.59;;;18.92;30.12
11172;BME280;5642;50.830;12.082;2023-04-30T12:32:11;100017.03;;;18.84;29.91
11172;BME280;5642;50.830;12.082;2023-04-30T12:34:41;100012.06;;;18.78;30.03
11172;BME280;5642;50.830;12.082;2023-04-30T12:37:07;100007.53;;;18.64;30.02
11172;BME280;5642;50.830;12.082;2023-04-30T12:39:34;100010.84;;;18.52;30.16
11172;BME280;5642;50.830;12.082;2023-04-30T12:42:11;99987.34;;;18.29;30.14
11172;BME280;5642;50.830;12.082;2023-04-30T12:44:43;100009.56;;;18.26;30.21
11172;BME280;5642;50.830;12.082;2023-04-30T12:47:10;100005.78;;;18.15;30.24
11172;BME280;5642;50.830;12.082;2023-04-30T12:49:52;99972.19;;;17.98;30.37
11172;BME280;5642;50.830;12.082;2023-04-30T12:52:23;100011.22;;;18.12;30.36
11172;BME280;5642;50.830;12.082;2023-04-30T12:54:49;99998.56;;;18.01;30.40
11172;BME280;5642;50.830;12.082;2023-04-30T12:57:18;100009.94;;;18.03;30.37
11172;BME280;5642;50.830;12.082;2023-04-30T13:02:16;100001.75;;;17.90;30.50
11172;BME280;5642;50.830;12.082;2023-04-30T13:04:53;100012.22;;;17.93;30.42
11172;BME280;5642;50.830;12.082;2023-04-30T13:07:19;99983.06;;;17.76;30.45
11172;BME280;5642;50.830;12.082;2023-04-30T13:09:46;99996.88;;;17.83;30.55
11172;BME280;5642;50.830;12.082;2023-04-30T13:12:26;99993.13;;;17.87;30.35
11172;BME280;5642;50.830;12.082;2023-04-30T13:14:52;99996.16;;;17.79;30.57
11172;BME280;5642;50.830;12.082;2023-04-30T13:17:17;99993.53;;;17.79;30.64
11172;BME280;5642;50.830;12.082;2023-04-30T13:19:44;99986.44;;;17.80;30.64
11172;BME280;5642;50.830;12.082;2023-04-30T13:22:10;99990.78;;;17.81;30.52
11172;BME280;5642;50.830;12.082;2023-04-30T13:24:36;99986.56;;;17.77;30.68
11172;BME280;5642;50.830;12.082;2023-04-30T13:27:02;99976.22;;;17.72;30.64
11172;BME280;5642;50.830;12.082;2023-04-30T13:29:32;99979.59;;;17.76;30.57